createdAt,value
2023-01-10T00:00:57.298Z,16.08
2023-01-10T00:03:29.829Z,15.32
2023-01-10T00:05:59.640Z,14.02
2023-01-10T00:08:29.152Z,14.68
2023-01-10T00:11:20.576Z,14.93
2023-01-10T00:13:48.807Z,14.57
2023-01-10T00:16:18.523Z,15.75
2023-01-10T00:18:48.027Z,13.85
2023-01-10T00:21:18.865Z,13.32
2023-01-10T00:23:50.476Z,13.85
2023-01-10T00:26:21.766Z,13.93
2023-01-10T00:28:51.171Z,13.10
2023-01-10T00:31:21.229Z,12.35
2023-01-10T00:33:50.579Z,12.18
2023-01-10T00:36:20.293Z,12.85
2023-01-10T00:38:50.346Z,12.65
2023-01-10T00:41:39.120Z,11.55
2023-01-10T00:44:09.249Z,12.15
2023-01-10T00:46:39.112Z,12.48
2023-01-10T00:49:12.191Z,12.10
2023-01-10T00:51:41.877Z,12.50
2023-01-10T00:54:11.671Z,11.75
2023-01-10T00:56:43.191Z,12.77
2023-01-10T00:59:12.639Z,12.77
2023-01-10T01:01:42.609Z,11.77
2023-01-10T01:04:12.027Z,12.50
2023-01-10T01:06:41.665Z,10.73
2023-01-10T01:09:11.179Z,12.10
2023-01-10T01:11:42.390Z,12.05
2023-01-10T01:14:11.872Z,11.52
2023-01-10T01:16:42.106Z,11.75
2023-01-10T01:19:12.827Z,11.20
2023-01-10T01:21:43.087Z,12.57
2023-01-10T01:24:13.214Z,12.20
2023-01-10T01:26:44.371Z,12.70
2023-01-10T01:29:13.667Z,12.85
2023-01-10T01:31:43.544Z,11.93
2023-01-10T01:34:12.954Z,13.88
2023-01-10T01:36:42.812Z,11.07
2023-01-10T01:39:12.091Z,12.18
2023-01-10T01:42:00.619Z,12.38
2023-01-10T01:44:35.359Z,12.48
2023-01-10T01:47:10.434Z,10.60
2023-01-10T01:49:42.297Z,12.05
2023-01-10T01:52:20.446Z,11.25
2023-01-10T01:54:50.404Z,10.75
2023-01-10T01:57:24.330Z,12.10
2023-01-10T01:59:57.335Z,11.55
2023-01-10T02:02:32.270Z,12.23
2023-01-10T02:05:05.181Z,11.32
2023-01-10T02:07:38.134Z,10.20
2023-01-10T02:10:11.476Z,10.52
2023-01-10T02:12:42.239Z,10.77
2023-01-10T02:15:14.567Z,11.27
2023-01-10T02:17:44.794Z,11.30
2023-01-10T02:20:16.222Z,10.48
2023-01-10T02:23:21.189Z,9.98
2023-01-10T02:26:31.966Z,9.93
2023-01-10T02:29:19.790Z,8.40
2023-01-10T02:32:43.410Z,8.38
2023-01-10T02:35:34.602Z,9.18
2023-01-10T02:38:14.558Z,9.15
2023-01-10T02:40:52.761Z,10.98
2023-01-10T02:43:25.495Z,11.20
2023-01-10T02:45:59.387Z,10.85
2023-01-10T02:48:30.630Z,10.13
2023-01-10T02:51:04.989Z,11.23
2023-01-10T02:53:39.021Z,11.52
2023-01-10T02:56:35.552Z,9.43
2023-01-10T02:59:46.347Z,9.52
2023-01-10T03:02:25.074Z,9.57
2023-01-10T03:05:04.581Z,9.85
2023-01-10T03:07:41.839Z,9.77
2023-01-10T03:10:18.465Z,8.60
2023-01-10T03:12:53.042Z,10.30
2023-01-10T03:15:24.019Z,9.90
2023-01-10T03:17:58.388Z,9.43
2023-01-10T03:20:31.233Z,10.25
2023-01-10T03:23:04.934Z,9.65
2023-01-10T03:25:38.522Z,9.30
2023-01-10T03:28:12.278Z,10.27
2023-01-10T03:30:46.577Z,10.70
2023-01-10T03:33:21.334Z,10.52
2023-01-10T03:36:09.258Z,9.85
2023-01-10T03:38:47.224Z,9.88
2023-01-10T03:41:24.221Z,11.75
2023-01-10T03:44:15.834Z,9.50
2023-01-10T03:46:51.251Z,10.00
2023-01-10T03:49:22.333Z,9.95
2023-01-10T03:51:54.379Z,10.57
2023-01-10T03:54:24.084Z,10.05
2023-01-10T03:56:54.158Z,10.43
2023-01-10T03:59:27.976Z,11.00
2023-01-10T04:01:58.146Z,9.93
2023-01-10T04:04:28.005Z,9.93
2023-01-10T04:06:58.898Z,10.52
2023-01-10T04:09:28.660Z,11.45
2023-01-10T04:11:57.916Z,10.23
2023-01-10T04:14:27.859Z,11.32
2023-01-10T04:16:57.475Z,10.27
2023-01-10T04:19:27.420Z,10.13
2023-01-10T04:21:58.200Z,10.02
2023-01-10T04:24:27.940Z,10.77
2023-01-10T04:26:57.230Z,11.40
2023-01-10T04:29:27.432Z,11.60
2023-01-10T04:31:57.285Z,9.40
2023-01-10T04:34:27.066Z,10.23
2023-01-10T04:36:57.939Z,10.25
2023-01-10T04:39:27.675Z,10.25
2023-01-10T04:41:56.973Z,10.02
2023-01-10T04:44:26.656Z,12.57
2023-01-10T04:46:55.890Z,22.77
2023-01-10T04:49:25.599Z,12.88
2023-01-10T04:51:55.384Z,9.75
2023-01-10T04:54:26.640Z,11.23
2023-01-10T04:59:25.240Z,10.52
2023-01-10T05:01:55.279Z,11.02
2023-01-10T05:04:25.657Z,10.07
2023-01-10T05:06:54.938Z,12.25
2023-01-10T05:09:26.019Z,10.65
2023-01-10T05:11:55.394Z,10.30
2023-01-10T05:14:25.147Z,8.98
2023-01-10T05:16:54.925Z,9.10
2023-01-10T05:19:24.777Z,9.23
2023-01-10T05:21:56.518Z,8.27
2023-01-10T05:24:27.980Z,9.02
2023-01-10T05:26:57.379Z,7.63
2023-01-10T05:29:27.402Z,9.07
2023-01-10T05:31:56.867Z,8.65
2023-01-10T05:34:26.823Z,8.40
2023-01-10T05:36:56.201Z,8.57
2023-01-10T05:39:27.476Z,8.75
2023-01-10T05:41:57.144Z,8.77
2023-01-10T05:44:27.061Z,8.00
2023-01-10T05:46:56.283Z,9.18
2023-01-10T05:49:25.936Z,8.32
2023-01-10T05:51:55.287Z,8.30
2023-01-10T05:54:25.158Z,8.40
2023-01-10T05:56:56.067Z,8.65
2023-01-10T05:59:28.920Z,8.63
2023-01-10T06:01:58.280Z,8.05
2023-01-10T06:04:28.137Z,7.93
2023-01-10T06:06:57.446Z,8.10
2023-01-10T06:09:27.076Z,7.78
2023-01-10T06:11:57.919Z,7.93
2023-01-10T06:14:27.831Z,8.90
2023-01-10T06:16:57.146Z,7.82
2023-01-10T06:19:26.983Z,8.85
2023-01-10T06:21:56.244Z,10.05
2023-01-10T06:24:25.841Z,9.35
2023-01-10T06:26:56.603Z,9.23
2023-01-10T06:29:26.293Z,7.90
2023-01-10T06:31:55.605Z,10.20
2023-01-10T06:34:25.225Z,9.35
2023-01-10T06:36:54.530Z,8.75
2023-01-10T06:39:24.345Z,9.38
2023-01-10T06:41:53.615Z,9.32
2023-01-10T06:44:24.718Z,9.32
2023-01-10T06:46:54.144Z,9.93
2023-01-10T06:49:23.823Z,12.18
2023-01-10T06:51:53.083Z,8.32
2023-01-10T06:54:22.860Z,9.52
2023-01-10T06:56:52.283Z,9.07
2023-01-10T06:59:21.959Z,10.80
2023-01-10T07:01:52.820Z,10.32
2023-01-10T07:04:22.700Z,10.18
2023-01-10T07:06:52.110Z,9.95
2023-01-10T07:09:21.968Z,8.15
2023-01-10T07:11:51.289Z,9.82
2023-01-10T07:14:21.171Z,7.88
2023-01-10T07:16:51.901Z,9.65
2023-01-10T07:19:21.580Z,9.23
2023-01-10T07:21:50.857Z,9.63
2023-01-10T07:24:20.778Z,10.27
2023-01-10T07:26:50.278Z,8.75
2023-01-10T07:29:20.299Z,10.00
2023-01-10T07:31:49.568Z,9.27
2023-01-10T07:34:20.864Z,10.68
2023-01-10T07:36:50.126Z,10.32
2023-01-10T07:39:19.935Z,10.15
2023-01-10T07:41:49.846Z,10.25
2023-01-10T07:44:20.029Z,9.68
2023-01-10T07:46:49.309Z,9.20
2023-01-10T07:49:20.700Z,9.27
2023-01-10T07:54:19.435Z,8.98
2023-01-10T07:56:49.810Z,9.05
2023-01-10T07:59:19.875Z,9.73
2023-01-10T08:01:49.230Z,9.90
2023-01-10T08:04:20.310Z,8.55
2023-01-10T08:06:49.663Z,9.40
2023-01-10T08:09:19.439Z,8.38
2023-01-10T08:11:49.272Z,8.43
2023-01-10T08:14:19.518Z,9.60
2023-01-10T08:16:48.858Z,9.32
2023-01-10T08:19:19.993Z,9.90
2023-01-10T08:21:49.779Z,10.48
2023-01-10T08:24:19.555Z,10.27
2023-01-10T08:26:49.540Z,9.60
2023-01-10T08:29:19.281Z,10.05
2023-01-10T08:31:48.529Z,9.90
2023-01-10T08:34:20.014Z,9.55
2023-01-10T08:36:52.228Z,11.18
2023-01-10T08:39:23.093Z,10.23
2023-01-10T08:41:52.464Z,11.68
2023-01-10T08:44:22.198Z,12.02
2023-01-10T08:46:51.821Z,11.25
2023-01-10T08:49:22.969Z,10.52
2023-01-10T08:51:52.458Z,10.05
2023-01-10T08:54:22.342Z,10.48
2023-01-10T08:56:51.578Z,10.00
2023-01-10T08:59:21.215Z,10.48
2023-01-10T09:01:50.547Z,10.25
2023-01-10T09:04:21.674Z,11.15
2023-01-10T09:06:50.997Z,10.30
2023-01-10T09:09:20.812Z,10.40
2023-01-10T09:11:50.181Z,10.23
2023-01-10T09:14:19.883Z,9.75
2023-01-10T09:16:51.945Z,10.30
2023-01-10T09:19:23.091Z,9.65
2023-01-10T09:21:52.415Z,10.07
2023-01-10T09:24:22.325Z,9.55
2023-01-10T09:26:51.633Z,8.68
2023-01-10T09:29:21.479Z,9.77
2023-01-10T09:31:50.781Z,8.75
2023-01-10T09:34:22.359Z,9.35
2023-01-10T09:36:51.660Z,9.75
2023-01-10T09:39:22.126Z,9.38
2023-01-10T09:42:13.830Z,9.40
2023-01-10T09:44:51.647Z,9.23
2023-01-10T09:47:29.094Z,10.18
2023-01-10T09:50:11.716Z,9.32
2023-01-10T09:52:46.467Z,9.18
2023-01-10T09:55:25.392Z,10.25
2023-01-10T09:57:56.538Z,11.18
2023-01-10T10:00:32.989Z,11.45
2023-01-10T10:03:02.730Z,11.65
2023-01-10T10:05:34.100Z,9.98
2023-01-10T10:10:45.220Z,10.75
2023-01-10T10:13:27.625Z,11.23
2023-01-10T10:16:05.707Z,10.90
2023-01-10T10:18:45.740Z,9.25
2023-01-10T10:21:25.458Z,11.52
2023-01-10T10:24:17.160Z,11.85
2023-01-10T10:26:54.181Z,10.55
2023-01-10T10:29:50.759Z,11.25
2023-01-10T10:32:40.704Z,11.32
2023-01-10T10:35:15.733Z,12.25
2023-01-10T10:37:51.597Z,10.43
2023-01-10T10:40:23.107Z,9.98
2023-01-10T10:42:55.273Z,10.25
2023-01-10T10:45:30.997Z,11.95
2023-01-10T10:48:07.497Z,10.93
2023-01-10T10:50:42.433Z,10.77
2023-01-10T10:53:13.796Z,10.85
2023-01-10T10:55:43.422Z,10.23
2023-01-10T10:58:14.824Z,9.77
2023-01-10T11:03:30.449Z,11.18
2023-01-10T11:06:02.157Z,9.85
2023-01-10T11:08:33.438Z,10.48
2023-01-10T11:11:08.420Z,10.20
2023-01-10T11:13:46.780Z,10.68
2023-01-10T11:16:27.575Z,10.15
2023-01-10T11:21:50.272Z,10.80
2023-01-10T11:24:34.149Z,10.55
2023-01-10T11:27:06.918Z,10.50
2023-01-10T11:29:41.807Z,10.23
2023-01-10T11:32:15.712Z,10.27
2023-01-10T11:34:54.111Z,11.80
2023-01-10T11:37:29.421Z,10.65
2023-01-10T11:40:24.330Z,13.07
2023-01-10T11:42:57.607Z,11.90
2023-01-10T11:45:37.230Z,12.75
2023-01-10T11:48:11.376Z,12.50
2023-01-10T11:50:46.278Z,11.70
2023-01-10T11:53:39.631Z,11.40
2023-01-10T11:56:12.840Z,11.77
2023-01-10T11:58:44.272Z,11.00
2023-01-10T12:01:33.398Z,10.73
2023-01-10T12:04:03.040Z,10.88
2023-01-10T12:06:33.919Z,10.65
2023-01-10T12:09:03.314Z,10.10
2023-01-10T12:11:36.172Z,10.10
2023-01-10T12:14:21.608Z,10.13
2023-01-10T12:17:02.187Z,9.85
2023-01-10T12:19:31.606Z,9.10
2023-01-10T12:22:09.162Z,8.48
2023-01-10T12:24:42.650Z,8.40
2023-01-10T12:27:16.389Z,8.77
2023-01-10T12:29:51.753Z,10.43
2023-01-10T12:32:36.638Z,10.45
2023-01-10T12:35:12.732Z,10.77
2023-01-10T12:37:48.146Z,11.18
2023-01-10T12:40:23.151Z,11.20
2023-01-10T12:43:17.615Z,12.02
2023-01-10T12:45:52.343Z,12.98
2023-01-10T12:48:32.026Z,13.00
2023-01-10T12:51:06.484Z,14.48
2023-01-10T12:53:40.001Z,16.25
2023-01-10T12:56:14.699Z,15.25
2023-01-10T12:58:47.485Z,16.17
2023-01-10T13:01:18.900Z,16.63
2023-01-10T13:03:55.869Z,17.50
2023-01-10T13:06:31.014Z,18.17
2023-01-10T13:09:05.197Z,19.33
2023-01-10T13:11:42.851Z,21.30
2023-01-10T13:14:16.927Z,20.20
2023-01-10T13:16:54.747Z,22.40
2023-01-10T13:19:26.818Z,21.20
2023-01-10T13:22:21.937Z,21.00
2023-01-10T13:25:00.786Z,20.30
2023-01-10T13:27:34.673Z,21.38
2023-01-10T13:30:07.036Z,19.35
2023-01-10T13:32:38.768Z,21.60
2023-01-10T13:35:15.339Z,21.25
2023-01-10T13:37:46.677Z,21.40
2023-01-10T13:40:26.215Z,21.25
2023-01-10T13:43:40.807Z,19.80
2023-01-10T13:46:37.088Z,20.67
2023-01-10T13:49:48.270Z,19.23
2023-01-10T13:52:35.314Z,20.08
2023-01-10T13:55:26.581Z,20.48
2023-01-10T13:57:58.836Z,19.92
2023-01-10T14:01:06.434Z,20.38
2023-01-10T14:03:50.199Z,19.63
2023-01-10T14:06:44.081Z,21.60
2023-01-10T14:09:40.045Z,21.40
2023-01-10T14:12:18.906Z,21.35
2023-01-10T14:14:55.967Z,24.17
2023-01-10T14:17:28.082Z,23.40
2023-01-10T14:20:16.735Z,22.60
2023-01-10T14:23:01.041Z,20.80
2023-01-10T14:25:33.772Z,21.65
2023-01-10T14:28:04.178Z,23.85
2023-01-10T14:30:36.021Z,21.67
2023-01-10T14:33:12.999Z,22.42
2023-01-10T14:35:48.159Z,22.83
2023-01-10T14:38:24.580Z,21.75
2023-01-10T14:40:59.193Z,21.80
2023-01-10T14:43:33.701Z,25.60
2023-01-10T14:46:07.891Z,22.83
2023-01-10T14:48:43.015Z,22.77
2023-01-10T14:51:22.006Z,22.02
2023-01-10T14:53:58.652Z,19.70
2023-01-10T14:56:30.570Z,19.30
2023-01-10T14:58:59.848Z,20.92
2023-01-10T15:01:32.062Z,20.85
2023-01-10T15:04:03.195Z,23.05
2023-01-10T15:06:52.988Z,17.63
2023-01-10T15:09:22.854Z,19.33
2023-01-10T15:11:55.065Z,21.02
2023-01-10T15:14:27.304Z,20.77
2023-01-10T15:17:02.530Z,18.35
2023-01-10T15:19:35.223Z,18.30
2023-01-10T15:22:19.752Z,19.17
2023-01-10T15:25:00.228Z,18.45
2023-01-10T15:27:30.758Z,19.42
2023-01-10T15:30:01.228Z,20.93
2023-01-10T15:35:03.595Z,22.77
2023-01-10T15:37:39.617Z,21.83
2023-01-10T15:40:22.122Z,20.60
2023-01-10T15:42:52.260Z,20.75
2023-01-10T15:45:31.332Z,24.65
2023-01-10T15:48:04.557Z,23.98
2023-01-10T15:50:39.181Z,21.83
2023-01-10T15:53:12.457Z,21.38
2023-01-10T15:55:45.639Z,22.80
2023-01-10T15:58:20.481Z,23.52
2023-01-10T16:00:51.749Z,23.85
2023-01-10T16:03:29.129Z,24.17
2023-01-10T16:06:00.591Z,25.38
2023-01-10T16:08:35.130Z,24.92
2023-01-10T16:11:07.779Z,25.40
2023-01-10T16:13:37.725Z,23.42
2023-01-10T16:16:18.917Z,25.15
2023-01-10T16:18:48.644Z,23.75
2023-01-10T16:21:19.914Z,23.40
2023-01-10T16:23:51.594Z,24.10
2023-01-10T16:28:50.165Z,25.02
2023-01-10T16:31:20.212Z,26.63
2023-01-10T16:33:50.000Z,26.35
2023-01-10T16:36:21.579Z,25.65
2023-01-10T16:38:52.989Z,23.15
2023-01-10T16:44:09.921Z,25.42
2023-01-10T16:46:40.008Z,23.88
2023-01-10T16:49:09.711Z,25.20
2023-01-10T16:51:41.730Z,25.60
2023-01-10T16:54:19.881Z,26.95
2023-01-10T16:56:49.663Z,26.10
2023-01-10T16:59:20.674Z,25.50
2023-01-10T17:01:54.132Z,25.02
2023-01-10T17:04:27.556Z,24.70
2023-01-10T17:06:57.073Z,24.98
2023-01-10T17:09:31.012Z,27.45
2023-01-10T17:12:03.728Z,27.02
2023-01-10T17:14:35.539Z,24.90
2023-01-10T17:17:05.146Z,23.88
2023-01-10T17:19:34.948Z,25.92
2023-01-10T17:22:04.386Z,27.27
2023-01-10T17:24:35.513Z,25.63
2023-01-10T17:27:05.084Z,26.60
2023-01-10T17:29:35.710Z,25.70
2023-01-10T17:32:05.651Z,26.80
2023-01-10T17:34:37.993Z,27.90
2023-01-10T17:37:07.879Z,27.52
2023-01-10T17:39:39.641Z,26.70
2023-01-10T17:42:09.595Z,23.52
2023-01-10T17:44:39.303Z,24.17
2023-01-10T17:47:09.562Z,23.40
2023-01-10T17:49:39.267Z,24.73
2023-01-10T17:52:08.843Z,25.98
2023-01-10T17:54:40.030Z,26.60
2023-01-10T17:57:09.454Z,25.67
2023-01-10T17:59:39.146Z,24.98
2023-01-10T18:02:11.465Z,24.92
2023-01-10T18:04:41.684Z,23.73
2023-01-10T18:07:12.945Z,23.35
2023-01-10T18:09:44.958Z,23.65
2023-01-10T18:12:14.551Z,23.55
2023-01-10T18:14:44.696Z,22.33
2023-01-10T18:17:14.381Z,21.17
2023-01-10T18:19:44.561Z,23.30
2023-01-10T18:22:32.041Z,20.92
2023-01-10T18:25:03.500Z,21.05
2023-01-10T18:27:33.001Z,21.60
2023-01-10T18:30:02.647Z,21.77
2023-01-10T18:32:32.709Z,21.42
2023-01-10T18:35:02.444Z,20.20
2023-01-10T18:37:32.745Z,19.25
2023-01-10T18:40:04.764Z,18.48
2023-01-10T18:42:34.918Z,18.10
2023-01-10T18:45:04.918Z,17.42
2023-01-10T18:47:34.626Z,18.67
2023-01-10T18:50:05.313Z,19.77
2023-01-10T18:52:34.723Z,21.40
2023-01-10T18:55:08.373Z,21.65
2023-01-10T18:57:37.680Z,19.38
2023-01-10T19:00:08.946Z,18.67
2023-01-10T19:02:38.302Z,18.92
2023-01-10T19:05:10.638Z,18.65
2023-01-10T19:07:39.970Z,17.30
2023-01-10T19:10:12.786Z,19.35
2023-01-10T19:12:42.758Z,18.67
2023-01-10T19:15:13.387Z,19.73
2023-01-10T19:17:42.821Z,18.65
2023-01-10T19:20:13.319Z,18.38
2023-01-10T19:22:42.804Z,20.37
2023-01-10T19:25:14.211Z,17.75
2023-01-10T19:27:43.925Z,18.10
2023-01-10T19:30:14.806Z,19.45
2023-01-10T19:32:44.492Z,17.35
2023-01-10T19:35:14.367Z,18.55
2023-01-10T19:37:44.110Z,18.30
2023-01-10T19:40:16.568Z,17.48
2023-01-10T19:42:46.256Z,19.45
2023-01-10T19:45:16.309Z,17.57
2023-01-10T19:47:45.591Z,18.75
2023-01-10T19:50:15.770Z,17.85
2023-01-10T19:52:46.718Z,17.95
2023-01-10T19:55:18.460Z,19.63
2023-01-10T19:57:47.858Z,17.17
2023-01-10T20:00:19.559Z,18.90
2023-01-10T20:05:19.252Z,16.60
2023-01-10T20:07:51.116Z,16.95
2023-01-10T20:10:22.925Z,20.38
2023-01-10T20:12:52.293Z,18.40
2023-01-10T20:15:22.183Z,17.67
2023-01-10T20:17:51.571Z,19.42
2023-01-10T20:20:21.697Z,20.10
2023-01-10T20:22:51.010Z,17.45
2023-01-10T20:25:22.405Z,18.30
2023-01-10T20:27:51.739Z,19.70
2023-01-10T20:30:21.496Z,19.73
2023-01-10T20:32:51.448Z,19.65
2023-01-10T20:35:22.446Z,18.30
2023-01-10T20:37:51.754Z,19.48
2023-01-10T20:40:25.257Z,16.23
2023-01-10T20:42:54.543Z,15.05
2023-01-10T20:45:24.865Z,17.55
2023-01-10T20:47:54.243Z,16.17
2023-01-10T20:50:24.196Z,17.73
2023-01-10T20:52:53.809Z,15.48
2023-01-10T20:55:26.393Z,17.00
2023-01-10T20:57:55.676Z,17.00
2023-01-10T21:00:25.578Z,15.43
2023-01-10T21:02:54.930Z,17.17
2023-01-10T21:05:24.852Z,17.92
2023-01-10T21:07:54.341Z,16.35
2023-01-10T21:10:25.581Z,16.30
2023-01-10T21:12:54.984Z,14.57
2023-01-10T21:15:25.728Z,14.32
2023-01-10T21:17:55.015Z,12.57
2023-01-10T21:20:28.265Z,13.07
2023-01-10T21:22:59.895Z,13.75
2023-01-10T21:25:32.677Z,19.70
2023-01-10T21:28:02.061Z,17.83
2023-01-10T21:30:32.032Z,17.90
2023-01-10T21:33:02.044Z,18.52
2023-01-10T21:35:31.749Z,15.98
2023-01-10T21:38:01.150Z,16.85
2023-01-10T21:40:36.148Z,16.10
2023-01-10T21:43:05.548Z,17.23
2023-01-10T21:45:36.406Z,14.95
2023-01-10T21:48:06.199Z,16.13
2023-01-10T21:50:35.980Z,13.33
2023-01-10T21:53:05.433Z,15.23
2023-01-10T21:55:37.027Z,15.98
2023-01-10T21:58:06.537Z,15.45
2023-01-10T22:00:36.304Z,14.20
2023-01-10T22:03:05.703Z,14.52
2023-01-10T22:05:35.412Z,15.65
2023-01-10T22:08:04.704Z,15.70
2023-01-10T22:10:35.833Z,16.05
2023-01-10T22:13:05.437Z,15.90
2023-01-10T22:15:35.146Z,16.65
2023-01-10T22:18:04.560Z,15.75
2023-01-10T22:20:34.410Z,15.55
2023-01-10T22:23:03.708Z,17.10
2023-01-10T22:25:33.409Z,18.52
2023-01-10T22:28:04.167Z,18.00
2023-01-10T22:30:33.866Z,19.13
2023-01-10T22:33:03.464Z,18.48
2023-01-10T22:35:33.131Z,18.75
2023-01-10T22:38:02.919Z,18.35
2023-01-10T22:40:32.730Z,18.23
2023-01-10T22:43:03.562Z,20.70
2023-01-10T22:45:33.633Z,18.25
2023-01-10T22:48:03.131Z,17.25
2023-01-10T22:50:32.923Z,17.65
2023-01-10T22:53:02.280Z,18.20
2023-01-10T22:55:32.597Z,17.95
2023-01-10T22:58:03.335Z,17.98
2023-01-10T23:00:33.157Z,17.13
2023-01-10T23:03:02.488Z,16.67
2023-01-10T23:05:32.299Z,17.05
2023-01-10T23:08:01.623Z,16.98
2023-01-10T23:10:31.899Z,15.10
2023-01-10T23:13:05.321Z,15.18
2023-01-10T23:15:35.252Z,12.90
2023-01-10T23:18:04.596Z,12.98
2023-01-10T23:20:35.475Z,12.15
2023-01-10T23:23:04.793Z,11.00
2023-01-10T23:25:34.639Z,11.10
2023-01-10T23:28:05.934Z,11.55
2023-01-10T23:30:35.751Z,10.02
2023-01-10T23:33:05.720Z,10.45
2023-01-10T23:35:35.399Z,10.38
2023-01-10T23:38:04.715Z,11.48
2023-01-10T23:40:34.359Z,11.48
2023-01-10T23:43:07.377Z,10.73
2023-01-10T23:45:37.379Z,11.57
2023-01-10T23:48:07.880Z,11.50
2023-01-10T23:50:38.228Z,9.60
2023-01-10T23:53:07.733Z,10.75
2023-01-10T23:55:37.724Z,11.05
2023-01-10T23:58:08.833Z,11.20
